Time;durP1;ratioP1;P1;durP2;ratioP2;P2;SDS_P1;SDS_P2;PMS_P1;PMS_P2;Temp;Humidity;BMP_temperature;BMP_pressure;BME280_temperature;BME280_humidity;BME280_pressure;Samples;Min_cycle;Max_cycle;Signal;HPM_P1;HPM_P2
2023/01/03 00:01:28;;;;;;;;;;;4.80;99.90;;;;;;4967573;28;19973;-55
2023/01/03 00:03:55;;;;;;;;;;;4.80;99.90;;;;;;4962209;28;19964;-53
2023/01/03 00:06:22;;;;;;;;;;;4.90;99.90;;;;;;4956352;28;19934;-54
2023/01/03 00:08:48;;;;;;;;;;;4.90;99.90;;;;;;4955019;28;20373;-55
2023/01/03 00:11:15;;;;;;;;;;;4.90;99.90;;;;;;4955699;28;19929;-54
2023/01/03 00:13:41;;;;;;;;;;;4.90;99.90;;;;;;4958555;28;20463;-55
2023/01/03 00:16:16;;;;;;;;;;;4.80;99.90;;;;;;4957291;28;19946;-53
2023/01/03 00:18:42;;;;;;;;;;;4.80;99.90;;;;;;4956026;28;19938;-51
2023/01/03 00:21:07;;;;;;;;;;;4.80;99.90;;;;;;4956406;28;20028;-53
2023/01/03 00:23:33;;;;;;;;;;;4.70;99.90;;;;;;4955204;28;19937;-56
2023/01/03 00:25:58;;;;;;;;;;;4.70;99.90;;;;;;4965878;28;19981;-52
2023/01/03 00:28:23;;;;;;;;;;;4.70;99.90;;;;;;4970616;28;19928;-55
2023/01/03 00:30:49;;;;;;;;;;;4.60;99.90;;;;;;4967119;28;19949;-55
2023/01/03 00:33:14;;;;;;;;;;;4.60;99.90;;;;;;4970537;28;20009;-54
2023/01/03 00:35:40;;;;;;;;;;;4.50;99.90;;;;;;4977904;28;19922;-51
2023/01/03 00:38:05;;;;;;;;;;;4.50;99.90;;;;;;4991124;28;19925;-56
2023/01/03 00:40:31;;;;;;;;;;;4.40;99.90;;;;;;5012905;28;20379;-55
2023/01/03 00:45:41;;;;;;;;;;;4.30;99.90;;;;;;5006985;28;20048;-54
2023/01/03 00:48:06;;;;;;;;;;;4.30;99.90;;;;;;5003479;28;20376;-51
2023/01/03 00:50:35;;;;;;;;;;;4.20;99.90;;;;;;5005872;28;19921;-54
2023/01/03 00:53:00;;;;;;;;;;;4.20;99.90;;;;;;5003939;28;19925;-53
2023/01/03 00:55:26;;;;;;;;;;;4.20;99.90;;;;;;5013484;28;19926;-51
2023/01/03 00:57:51;;;;;;;;;;;4.10;99.90;;;;;;5003121;28;19922;-55
2023/01/03 01:00:17;;;;;;;;;;;4.10;99.90;;;;;;4988325;28;20268;-54
2023/01/03 01:02:43;;;;;;;;;;;4.00;99.90;;;;;;4998924;28;19968;-55
2023/01/03 01:05:08;;;;;;;;;;;4.00;99.90;;;;;;5000888;28;20003;-53
2023/01/03 01:07:34;;;;;;;;;;;4.00;99.90;;;;;;4998022;28;19921;-55
2023/01/03 01:09:59;;;;;;;;;;;4.00;99.90;;;;;;4998250;28;20379;-52
2023/01/03 01:12:25;;;;;;;;;;;3.90;99.90;;;;;;4998316;28;20366;-55
2023/01/03 01:14:50;;;;;;;;;;;3.80;99.90;;;;;;4997461;28;19921;-55
2023/01/03 01:17:16;;;;;;;;;;;3.80;99.90;;;;;;4997811;28;19925;-50
2023/01/03 01:19:42;;;;;;;;;;;3.80;99.90;;;;;;4998675;28;21209;-54
2023/01/03 01:22:08;;;;;;;;;;;3.80;99.90;;;;;;4988847;28;19928;-56
2023/01/03 01:24:34;;;;;;;;;;;3.70;99.90;;;;;;4996985;28;20347;-55
2023/01/03 01:27:00;;;;;;;;;;;3.70;99.90;;;;;;4997211;28;20020;-55
2023/01/03 01:29:25;;;;;;;;;;;3.70;99.90;;;;;;4997502;28;19940;-56
2023/01/03 01:31:51;;;;;;;;;;;3.60;99.90;;;;;;4999438;28;19968;-56
2023/01/03 01:34:16;;;;;;;;;;;3.70;99.90;;;;;;5001597;28;19931;-55
2023/01/03 01:36:42;;;;;;;;;;;3.70;99.90;;;;;;4991232;28;20048;-55
2023/01/03 01:39:15;;;;;;;;;;;3.60;99.90;;;;;;4998826;28;20263;-55
2023/01/03 01:44:43;;;;;;;;;;;3.60;99.90;;;;;;5004620;28;20301;-54
2023/01/03 01:47:16;;;;;;;;;;;3.50;99.90;;;;;;5001199;28;19925;-55
2023/01/03 01:49:42;;;;;;;;;;;3.50;99.90;;;;;;4990502;28;19930;-54
2023/01/03 01:52:09;;;;;;;;;;;3.50;99.90;;;;;;5005935;28;20016;-53
2023/01/03 01:54:34;;;;;;;;;;;3.50;99.90;;;;;;5001155;28;19921;-51
2023/01/03 01:57:00;;;;;;;;;;;3.50;99.90;;;;;;4998909;28;19991;-52
2023/01/03 01:59:27;;;;;;;;;;;3.50;99.90;;;;;;5003984;28;20640;-54
2023/01/03 02:01:52;;;;;;;;;;;3.50;99.90;;;;;;4999157;28;19937;-51
2023/01/03 02:04:20;;;;;;;;;;;3.40;99.90;;;;;;4981772;28;19934;-50
2023/01/03 02:06:46;;;;;;;;;;;3.40;99.90;;;;;;5000135;28;19929;-54
2023/01/03 02:09:12;;;;;;;;;;;3.40;99.90;;;;;;5005703;28;20256;-54
2023/01/03 02:11:37;;;;;;;;;;;3.50;99.90;;;;;;4987064;28;19921;-54
2023/01/03 02:14:05;;;;;;;;;;;3.40;99.90;;;;;;5004566;28;21538;-55
2023/01/03 02:16:54;;;;;;;;;;;3.40;99.90;;;;;;5005488;28;19975;-54
2023/01/03 02:19:33;;;;;;;;;;;3.40;99.90;;;;;;4996001;28;19921;-55
2023/01/03 02:21:59;;;;;;;;;;;3.30;99.90;;;;;;4993352;28;20385;-53
2023/01/03 02:24:43;;;;;;;;;;;3.30;99.90;;;;;;5005770;28;19921;-51
2023/01/03 02:27:11;;;;;;;;;;;3.30;99.90;;;;;;5003762;28;19975;-55
2023/01/03 02:29:46;;;;;;;;;;;3.20;99.90;;;;;;5005062;28;19933;-54
2023/01/03 02:32:14;;;;;;;;;;;3.20;99.90;;;;;;5005281;28;20140;-54
2023/01/03 02:34:46;;;;;;;;;;;3.20;99.90;;;;;;5003276;28;19932;-55
2023/01/03 02:37:27;;;;;;;;;;;3.20;99.90;;;;;;5004951;28;19928;-53
2023/01/03 02:40:14;;;;;;;;;;;3.20;99.90;;;;;;5004697;28;19961;-51
2023/01/03 02:42:56;;;;;;;;;;;3.20;99.90;;;;;;5003906;28;20354;-52
2023/01/03 02:45:31;;;;;;;;;;;3.20;99.90;;;;;;5005733;28;19928;-54
2023/01/03 02:48:00;;;;;;;;;;;3.20;99.90;;;;;;5006227;28;20011;-53
2023/01/03 02:50:28;;;;;;;;;;;3.20;99.90;;;;;;5005031;28;20272;-53
2023/01/03 02:52:55;;;;;;;;;;;3.20;99.90;;;;;;4999794;28;19981;-53
2023/01/03 02:55:23;;;;;;;;;;;3.10;99.90;;;;;;5014878;28;19927;-55
2023/01/03 02:58:09;;;;;;;;;;;3.20;99.90;;;;;;5013978;28;19929;-52
2023/01/03 03:00:40;;;;;;;;;;;3.20;99.90;;;;;;5010717;28;19922;-53
2023/01/03 03:03:09;;;;;;;;;;;3.10;99.90;;;;;;5001689;28;19929;-54
2023/01/03 03:05:58;;;;;;;;;;;3.20;99.90;;;;;;5003870;28;20028;-54
2023/01/03 03:08:24;;;;;;;;;;;3.10;99.90;;;;;;5002252;28;19929;-55
2023/01/03 03:13:42;;;;;;;;;;;3.10;99.90;;;;;;5003254;28;20020;-55
2023/01/03 03:16:18;;;;;;;;;;;3.10;99.90;;;;;;5003614;28;19922;-50
2023/01/03 03:18:47;;;;;;;;;;;3.20;99.90;;;;;;4999121;28;20015;-54
2023/01/03 03:26:46;;;;;;;;;;;3.10;99.90;;;;;;5010920;28;19921;-55
2023/01/03 03:29:15;;;;;;;;;;;3.10;99.90;;;;;;5018731;28;19921;-50
2023/01/03 03:31:42;;;;;;;;;;;3.00;99.90;;;;;;5024445;28;20422;-54
2023/01/03 03:34:13;;;;;;;;;;;3.00;99.90;;;;;;5019971;28;19929;-54
2023/01/03 03:36:44;;;;;;;;;;;3.00;99.90;;;;;;5007756;28;19921;-54
2023/01/03 03:44:59;;;;;;;;;;;3.00;99.90;;;;;;5016208;28;19925;-56
2023/01/03 03:45:00;;;;;;;;;;;2.90;99.90;;;;;;5023824;28;20010;-51
2023/01/03 03:47:35;;;;;;;;;;;2.90;99.90;;;;;;5020666;28;19940;-54
2023/01/03 03:50:04;;;;;;;;;;;2.90;99.90;;;;;;5021762;28;20357;-54
2023/01/03 03:52:30;;;;;;;;;;;2.80;99.90;;;;;;5024030;28;19921;-54
2023/01/03 03:55:00;;;;;;;;;;;2.70;99.90;;;;;;5024913;28;21457;-55
2023/01/03 03:57:31;;;;;;;;;;;2.80;99.90;;;;;;5024697;28;19968;-54
2023/01/03 04:00:05;;;;;;;;;;;2.80;99.90;;;;;;5014099;28;20367;-54
2023/01/03 04:02:31;;;;;;;;;;;2.80;99.90;;;;;;5020371;28;19921;-54
2023/01/03 04:04:59;;;;;;;;;;;2.70;99.90;;;;;;5025631;28;19987;-55
2023/01/03 04:07:25;;;;;;;;;;;2.70;99.90;;;;;;5017045;28;19929;-53
2023/01/03 04:09:50;;;;;;;;;;;2.60;99.90;;;;;;5005931;28;19932;-53
2023/01/03 04:12:16;;;;;;;;;;;2.70;99.90;;;;;;5025117;28;19986;-55
2023/01/03 04:14:41;;;;;;;;;;;2.80;99.90;;;;;;5007340;28;19921;-55
2023/01/03 04:17:07;;;;;;;;;;;2.80;99.90;;;;;;5010402;28;19944;-52
2023/01/03 04:19:32;;;;;;;;;;;2.70;99.90;;;;;;5019866;28;20216;-55
2023/01/03 04:21:58;;;;;;;;;;;2.70;99.90;;;;;;5018152;28;20324;-53
2023/01/03 04:24:23;;;;;;;;;;;2.70;99.90;;;;;;5011317;28;19921;-53
2023/01/03 04:26:49;;;;;;;;;;;2.70;99.90;;;;;;5022469;28;20043;-53
2023/01/03 04:29:14;;;;;;;;;;;2.70;99.90;;;;;;5025762;28;19964;-52
2023/01/03 04:31:40;;;;;;;;;;;2.60;99.90;;;;;;5017618;28;19932;-54
2023/01/03 04:34:06;;;;;;;;;;;2.70;99.90;;;;;;5018328;28;20328;-55
2023/01/03 04:36:31;;;;;;;;;;;2.70;99.90;;;;;;5024618;28;20308;-54
2023/01/03 04:38:57;;;;;;;;;;;2.70;99.90;;;;;;5024209;28;20403;-54
2023/01/03 04:41:22;;;;;;;;;;;2.70;99.90;;;;;;5028662;28;19921;-52
2023/01/03 04:44:00;;;;;;;;;;;2.70;99.90;;;;;;5006173;28;20043;-53
2023/01/03 04:46:26;;;;;;;;;;;2.70;99.90;;;;;;5023594;28;19976;-54
2023/01/03 04:48:52;;;;;;;;;;;2.70;99.90;;;;;;5002917;28;20359;-54
2023/01/03 04:51:17;;;;;;;;;;;2.60;99.90;;;;;;5019430;28;19929;-55
2023/01/03 04:53:43;;;;;;;;;;;2.60;99.90;;;;;;5016878;28;19921;-55
2023/01/03 04:56:08;;;;;;;;;;;2.60;99.90;;;;;;5006091;28;19925;-52
2023/01/03 04:58:34;;;;;;;;;;;2.60;99.90;;;;;;5004756;28;19928;-54
2023/01/03 05:01:00;;;;;;;;;;;2.60;99.90;;;;;;5019660;28;19921;-55
2023/01/03 05:03:26;;;;;;;;;;;2.60;99.90;;;;;;5017898;28;19929;-53
2023/01/03 05:05:52;;;;;;;;;;;;;;;;;;5022596;28;19921;-54
2023/01/03 05:08:18;;;;;;;;;;;2.60;99.90;;;;;;5009981;28;19947;-53
2023/01/03 05:10:43;;;;;;;;;;;2.50;99.90;;;;;;5007711;28;19974;-55
2023/01/03 05:13:10;;;;;;;;;;;2.50;99.90;;;;;;5006478;28;19936;-54
2023/01/03 05:15:36;;;;;;;;;;;2.60;99.90;;;;;;5005840;28;20303;-54
2023/01/03 05:18:02;;;;;;;;;;;2.60;99.90;;;;;;5006259;28;20435;-54
2023/01/03 05:26:02;;;;;;;;;;;2.70;99.90;;;;;;5001645;28;19921;-54
2023/01/03 05:28:27;;;;;;;;;;;2.60;99.90;;;;;;5004828;28;19925;-52
2023/01/03 05:30:53;;;;;;;;;;;2.50;99.90;;;;;;5002257;28;19939;-55
2023/01/03 05:33:18;;;;;;;;;;;2.50;99.90;;;;;;4999501;28;19954;-53
2023/01/03 05:35:45;;;;;;;;;;;2.50;99.90;;;;;;4999913;28;19949;-55
2023/01/03 05:38:10;;;;;;;;;;;2.50;99.90;;;;;;4998668;28;19925;-54
2023/01/03 05:40:36;;;;;;;;;;;2.50;99.90;;;;;;5000163;28;20023;-55
2023/01/03 05:43:01;;;;;;;;;;;2.50;99.90;;;;;;4988078;28;20027;-52
2023/01/03 05:45:27;;;;;;;;;;;2.50;99.90;;;;;;4997424;28;19936;-56
2023/01/03 05:47:55;;;;;;;;;;;2.50;99.90;;;;;;4982067;28;19929;-54
2023/01/03 05:50:20;;;;;;;;;;;2.50;99.90;;;;;;4998308;28;20095;-54
2023/01/03 05:52:47;;;;;;;;;;;2.40;99.90;;;;;;4997752;28;20006;-54
2023/01/03 05:55:13;;;;;;;;;;;2.40;99.90;;;;;;4998371;28;20330;-55
2023/01/03 05:57:38;;;;;;;;;;;2.40;99.90;;;;;;5000704;28;19921;-55
2023/01/03 06:00:04;;;;;;;;;;;2.50;99.90;;;;;;4999839;28;19945;-53
2023/01/03 06:02:30;;;;;;;;;;;2.40;99.90;;;;;;4981249;28;20248;-55
2023/01/03 06:04:55;;;;;;;;;;;2.40;99.90;;;;;;4998135;28;19925;-54
2023/01/03 06:07:21;;;;;;;;;;;2.40;99.90;;;;;;4997764;28;20295;-52
2023/01/03 06:09:46;;;;;;;;;;;2.40;99.90;;;;;;4998053;28;19929;-51
2023/01/03 06:12:11;;;;;;;;;;;2.50;99.90;;;;;;5001592;28;19972;-54
2023/01/03 06:14:37;;;;;;;;;;;2.50;99.90;;;;;;5000755;28;20634;-54
2023/01/03 06:19:47;;;;;;;;;;;2.40;99.90;;;;;;5000295;28;20059;-50
2023/01/03 06:22:12;;;;;;;;;;;2.50;99.90;;;;;;5010002;28;20447;-52
2023/01/03 06:24:38;;;;;;;;;;;2.50;99.90;;;;;;5003194;28;20607;-53
2023/01/03 06:27:04;;;;;;;;;;;2.50;99.90;;;;;;4997420;28;19969;-55
2023/01/03 06:29:29;;;;;;;;;;;2.50;99.90;;;;;;5000032;28;21577;-53
2023/01/03 06:31:55;;;;;;;;;;;2.50;99.90;;;;;;5001203;28;19927;-55
2023/01/03 06:34:20;;;;;;;;;;;2.70;99.90;;;;;;5002522;28;20277;-55
2023/01/03 06:36:46;;;;;;;;;;;2.70;99.90;;;;;;4998948;28;19927;-55
2023/01/03 06:39:11;;;;;;;;;;;2.70;99.90;;;;;;4997482;28;19922;-53
2023/01/03 06:41:37;;;;;;;;;;;2.70;99.90;;;;;;5000945;28;19933;-54
2023/01/03 06:44:02;;;;;;;;;;;2.80;99.90;;;;;;5000932;28;20030;-53
2023/01/03 06:54:42;;;;;;;;;;;;;;;;;;4996808;28;21987;-54
2023/01/03 06:57:07;;;;;;;;;;;3.10;99.90;;;;;;4997520;28;19943;-54
2023/01/03 06:59:33;;;;;;;;;;;3.10;99.90;;;;;;4997482;28;19929;-54
2023/01/03 07:01:59;;;;;;;;;;;;;;;;;;4999468;28;19921;-54
2023/01/03 07:04:25;;;;;;;;;;;3.20;99.90;;;;;;4997446;28;20457;-55
2023/01/03 07:06:50;;;;;;;;;;;3.30;99.90;;;;;;4999734;28;19930;-55
2023/01/03 07:09:16;;;;;;;;;;;3.20;99.90;;;;;;5002933;28;20012;-53
2023/01/03 07:11:41;;;;;;;;;;;3.30;99.90;;;;;;5004022;28;19921;-53
2023/01/03 07:14:08;;;;;;;;;;;3.40;99.90;;;;;;4998365;28;20299;-54
2023/01/03 07:16:35;;;;;;;;;;;3.50;99.90;;;;;;4997661;28;19933;-53
2023/01/03 07:19:00;;;;;;;;;;;3.50;99.90;;;;;;4997159;28;19975;-55
2023/01/03 07:21:27;;;;;;;;;;;3.60;99.90;;;;;;4996907;28;19929;-55
2023/01/03 07:23:53;;;;;;;;;;;3.50;99.90;;;;;;4996817;28;19933;-54
2023/01/03 07:26:19;;;;;;;;;;;3.70;99.90;;;;;;4996548;28;19940;-54
2023/01/03 07:28:45;;;;;;;;;;;3.60;99.90;;;;;;4996294;28;19925;-52
2023/01/03 07:31:10;;;;;;;;;;;3.70;99.90;;;;;;4997430;28;19921;-52
2023/01/03 07:33:37;;;;;;;;;;;3.70;99.90;;;;;;5000234;28;19928;-52
2023/01/03 07:36:08;;;;;;;;;;;3.80;99.90;;;;;;4998534;28;20012;-53
2023/01/03 07:38:34;;;;;;;;;;;3.80;99.90;;;;;;5002167;28;20415;-53
2023/01/03 07:41:00;;;;;;;;;;;3.90;99.90;;;;;;5001797;28;19932;-54
2023/01/03 07:43:38;;;;;;;;;;;4.00;99.90;;;;;;5003199;28;19925;-50
2023/01/03 07:46:12;;;;;;;;;;;4.00;99.90;;;;;;5001671;28;20363;-51
2023/01/03 07:48:38;;;;;;;;;;;4.10;99.90;;;;;;5004211;28;20529;-51
2023/01/03 07:51:04;;;;;;;;;;;4.10;99.90;;;;;;4987572;28;20447;-50
2023/01/03 07:53:29;;;;;;;;;;;4.10;99.90;;;;;;5005265;28;19925;-52
2023/01/03 07:56:05;;;;;;;;;;;4.10;99.90;;;;;;5005001;28;19925;-53
2023/01/03 07:58:31;;;;;;;;;;;4.20;99.90;;;;;;5004554;28;19921;-51
2023/01/03 08:01:04;;;;;;;;;;;4.20;99.90;;;;;;5004588;28;20021;-54
2023/01/03 08:03:30;;;;;;;;;;;4.20;99.90;;;;;;5005136;28;19921;-55
2023/01/03 08:05:58;;;;;;;;;;;4.30;99.90;;;;;;5005201;28;19928;-55
2023/01/03 08:08:24;;;;;;;;;;;4.20;99.90;;;;;;5003944;28;19985;-52
2023/01/03 08:13:34;;;;;;;;;;;4.30;99.90;;;;;;5004640;28;19921;-50
2023/01/03 08:16:00;;;;;;;;;;;4.40;99.90;;;;;;5005009;28;20032;-51
2023/01/03 08:18:26;;;;;;;;;;;4.40;99.90;;;;;;5002928;28;19929;-53
2023/01/03 08:20:54;;;;;;;;;;;4.30;99.90;;;;;;5001019;28;19929;-52
2023/01/03 08:23:20;;;;;;;;;;;4.40;99.90;;;;;;5006097;28;19932;-54
2023/01/03 08:25:45;;;;;;;;;;;4.50;99.90;;;;;;5015897;28;19929;-52
2023/01/03 08:28:11;;;;;;;;;;;4.50;99.90;;;;;;5011091;28;19928;-52
2023/01/03 08:30:40;;;;;;;;;;;4.50;99.90;;;;;;5015333;28;20288;-54
2023/01/03 08:33:07;;;;;;;;;;;4.40;99.90;;;;;;4993678;28;19945;-53
2023/01/03 08:35:34;;;;;;;;;;;4.50;99.90;;;;;;5000688;28;19932;-51
2023/01/03 08:38:01;;;;;;;;;;;4.50;99.90;;;;;;5007192;28;19933;-53
2023/01/03 08:40:27;;;;;;;;;;;4.50;99.90;;;;;;5009666;28;20426;-54
2023/01/03 08:42:53;;;;;;;;;;;4.50;99.90;;;;;;5016983;28;19928;-52
2023/01/03 08:45:19;;;;;;;;;;;4.50;99.90;;;;;;5021567;28;19929;-51
2023/01/03 08:47:44;;;;;;;;;;;4.50;99.90;;;;;;5024201;28;19968;-52
2023/01/03 08:50:10;;;;;;;;;;;4.60;99.90;;;;;;5018965;28;19964;-51
2023/01/03 08:52:36;;;;;;;;;;;4.60;99.90;;;;;;5002340;28;19941;-55
2023/01/03 08:55:02;;;;;;;;;;;4.60;99.90;;;;;;5016101;28;19929;-56
2023/01/03 08:57:28;;;;;;;;;;;4.60;99.90;;;;;;5015662;28;19948;-55
2023/01/03 08:59:53;;;;;;;;;;;4.70;99.90;;;;;;5023545;28;20364;-54
2023/01/03 09:02:19;;;;;;;;;;;4.70;99.90;;;;;;5027252;28;19975;-53
2023/01/03 09:04:44;;;;;;;;;;;4.70;99.90;;;;;;5009230;28;19971;-54
2023/01/03 09:07:11;;;;;;;;;;;4.70;99.90;;;;;;5009246;28;20439;-53
2023/01/03 09:09:36;;;;;;;;;;;4.60;99.90;;;;;;5015851;28;20009;-54
2023/01/03 09:12:02;;;;;;;;;;;4.70;99.90;;;;;;4993500;28;20043;-56
2023/01/03 09:14:29;;;;;;;;;;;4.70;99.90;;;;;;5006471;28;19972;-55
2023/01/03 09:16:54;;;;;;;;;;;4.80;99.90;;;;;;5010217;28;19933;-54
2023/01/03 09:19:20;;;;;;;;;;;4.80;99.90;;;;;;5012146;28;19930;-55
2023/01/03 09:21:46;;;;;;;;;;;;;;;;;;5004759;28;19921;-55
2023/01/03 09:24:11;;;;;;;;;;;4.80;99.90;;;;;;5008942;28;19922;-55
2023/01/03 09:26:37;;;;;;;;;;;4.70;99.90;;;;;;5004166;28;19925;-55
2023/01/03 09:29:03;;;;;;;;;;;4.80;99.90;;;;;;5004689;28;19929;-55
2023/01/03 09:31:33;;;;;;;;;;;4.80;99.90;;;;;;5005273;28;19980;-55
2023/01/03 09:33:59;;;;;;;;;;;4.80;99.90;;;;;;5017285;28;19932;-55
2023/01/03 09:36:24;;;;;;;;;;;4.80;99.90;;;;;;5009211;28;19940;-53
2023/01/03 09:38:50;;;;;;;;;;;4.90;99.90;;;;;;5007454;28;19929;-56
2023/01/03 09:41:23;;;;;;;;;;;4.90;99.90;;;;;;5003144;28;20389;-55
2023/01/03 09:43:50;;;;;;;;;;;4.80;99.90;;;;;;5003014;28;20746;-51
2023/01/03 09:46:18;;;;;;;;;;;4.80;99.90;;;;;;4994244;28;20003;-55
2023/01/03 09:48:43;;;;;;;;;;;5.00;99.90;;;;;;5010673;28;19921;-51
2023/01/03 10:05:00;;;;;;;;;;;5.00;99.90;;;;;;5007909;28;19928;-56
2023/01/03 10:07:29;;;;;;;;;;;5.00;99.90;;;;;;5013933;28;20861;-57
2023/01/03 10:10:18;;;;;;;;;;;5.10;99.90;;;;;;5014931;28;19960;-56
2023/01/03 10:13:02;;;;;;;;;;;5.10;99.90;;;;;;4999432;28;19967;-55
2023/01/03 10:15:49;;;;;;;;;;;5.10;99.90;;;;;;5009324;28;19971;-56
2023/01/03 10:18:27;;;;;;;;;;;5.20;99.90;;;;;;5013871;28;19947;-56
2023/01/03 10:20:56;;;;;;;;;;;5.20;99.90;;;;;;4996393;28;19928;-55
2023/01/03 10:23:22;;;;;;;;;;;5.30;99.90;;;;;;5012450;28;19921;-56
2023/01/03 10:25:47;;;;;;;;;;;5.30;99.90;;;;;;5014196;28;20468;-56
2023/01/03 10:28:18;;;;;;;;;;;5.30;99.90;;;;;;4982946;28;20041;-56
2023/01/03 10:31:03;;;;;;;;;;;5.30;99.90;;;;;;5016211;28;19925;-57
2023/01/03 10:33:31;;;;;;;;;;;5.40;99.90;;;;;;5003849;28;19926;-54
2023/01/03 10:35:57;;;;;;;;;;;;;;;;;;5008740;28;19952;-56
2023/01/03 10:38:24;;;;;;;;;;;5.50;99.90;;;;;;5011976;28;19924;-56
2023/01/03 10:40:52;;;;;;;;;;;5.50;99.90;;;;;;4995305;28;19928;-53
2023/01/03 10:43:17;;;;;;;;;;;5.50;99.90;;;;;;5012711;28;19931;-56
2023/01/03 10:45:50;;;;;;;;;;;5.60;99.90;;;;;;5013309;28;19925;-56
2023/01/03 10:48:16;;;;;;;;;;;5.60;99.90;;;;;;5009974;28;19921;-57
2023/01/03 10:50:41;;;;;;;;;;;5.70;99.90;;;;;;5009076;28;20414;-57
2023/01/03 10:53:07;;;;;;;;;;;5.70;99.90;;;;;;5002853;28;19979;-56
2023/01/03 10:55:34;;;;;;;;;;;5.70;99.90;;;;;;4997223;28;19925;-56
2023/01/03 10:57:59;;;;;;;;;;;5.70;99.90;;;;;;5007280;28;19929;-56
2023/01/03 11:00:29;;;;;;;;;;;5.80;99.90;;;;;;4989566;28;20175;-55
2023/01/03 11:02:55;;;;;;;;;;;;;;;;;;5008829;28;20046;-56
2023/01/03 11:05:25;;;;;;;;;;;6.00;99.90;;;;;;4990770;28;20000;-55
2023/01/03 11:07:55;;;;;;;;;;;6.10;99.90;;;;;;5015648;28;19944;-56
2023/01/03 11:10:33;;;;;;;;;;;6.10;99.90;;;;;;4982109;28;19936;-56
2023/01/03 11:12:58;;;;;;;;;;;6.10;99.90;;;;;;5017722;28;20371;-57
2023/01/03 11:15:30;;;;;;;;;;;6.20;99.90;;;;;;5013446;28;19928;-56
2023/01/03 11:17:55;;;;;;;;;;;6.20;99.90;;;;;;5011211;28;19925;-55
2023/01/03 11:20:29;;;;;;;;;;;6.30;99.90;;;;;;5014651;28;20360;-55
2023/01/03 11:23:00;;;;;;;;;;;6.30;99.90;;;;;;5000863;28;19925;-54
2023/01/03 11:25:25;;;;;;;;;;;6.30;99.90;;;;;;5005557;28;19936;-56
2023/01/03 11:27:51;;;;;;;;;;;6.30;99.90;;;;;;5006302;28;19921;-55
2023/01/03 11:30:25;;;;;;;;;;;6.30;99.90;;;;;;5012708;28;20440;-55
2023/01/03 11:32:53;;;;;;;;;;;6.30;99.90;;;;;;5006670;28;20508;-54
2023/01/03 11:35:33;;;;;;;;;;;6.40;99.90;;;;;;5013116;28;19928;-51
2023/01/03 11:37:58;;;;;;;;;;;6.40;99.90;;;;;;4983431;28;19932;-53
2023/01/03 11:40:24;;;;;;;;;;;;;;;;;;5004025;28;19930;-55
2023/01/03 11:43:16;;;;;;;;;;;6.40;99.90;;;;;;5003914;28;19922;-53
2023/01/03 11:45:47;;;;;;;;;;;6.40;99.90;;;;;;4993682;28;19922;-55
2023/01/03 11:48:26;;;;;;;;;;;6.50;99.90;;;;;;5012144;28;19936;-51
2023/01/03 11:51:06;;;;;;;;;;;6.50;99.90;;;;;;5006009;28;19921;-55
2023/01/03 11:53:36;;;;;;;;;;;6.50;99.90;;;;;;5002983;28;19930;-54
2023/01/03 11:56:20;;;;;;;;;;;6.50;99.90;;;;;;5005354;28;19925;-55
2023/01/03 11:58:51;;;;;;;;;;;6.50;99.90;;;;;;5007060;28;19965;-56
2023/01/03 12:01:19;;;;;;;;;;;6.50;99.90;;;;;;5001966;28;19929;-52
2023/01/03 12:03:59;;;;;;;;;;;6.60;99.90;;;;;;5004052;28;19929;-54
2023/01/03 12:06:24;;;;;;;;;;;6.60;99.90;;;;;;5016352;28;19921;-54
2023/01/03 12:08:59;;;;;;;;;;;6.60;99.90;;;;;;5032861;28;19927;-54
2023/01/03 12:11:25;;;;;;;;;;;;;;;;;;5026402;28;20380;-51
2023/01/03 12:14:01;;;;;;;;;;;6.70;99.90;;;;;;4998531;28;19921;-53
2023/01/03 12:16:33;;;;;;;;;;;6.70;99.90;;;;;;5014027;28;19975;-56
2023/01/03 12:19:05;;;;;;;;;;;6.70;99.90;;;;;;5016487;28;19932;-52
2023/01/03 12:21:35;;;;;;;;;;;6.70;99.90;;;;;;5012695;28;20044;-55
2023/01/03 12:24:03;;;;;;;;;;;6.70;99.90;;;;;;4987888;28;19922;-57
2023/01/03 12:26:29;;;;;;;;;;;6.80;99.90;;;;;;5012823;28;20342;-56
2023/01/03 12:28:58;;;;;;;;;;;6.80;99.90;;;;;;5015776;28;19921;-52
2023/01/03 12:31:45;;;;;;;;;;;6.80;99.90;;;;;;4995911;28;19952;-55
2023/01/03 12:34:11;;;;;;;;;;;6.80;99.90;;;;;;4987418;28;19922;-56
2023/01/03 12:36:40;;;;;;;;;;;6.80;99.90;;;;;;4997239;28;19922;-55
2023/01/03 12:39:10;;;;;;;;;;;6.80;99.90;;;;;;5014728;28;20394;-55
2023/01/03 12:41:46;;;;;;;;;;;6.80;99.90;;;;;;5015180;28;20008;-55
2023/01/03 12:44:14;;;;;;;;;;;6.90;99.90;;;;;;5008371;28;19953;-55
2023/01/03 12:46:45;;;;;;;;;;;6.80;99.90;;;;;;5008584;28;19976;-57
2023/01/03 12:49:14;;;;;;;;;;;6.90;99.90;;;;;;5015323;28;19922;-56
2023/01/03 12:51:39;;;;;;;;;;;6.90;99.90;;;;;;5014890;28;20032;-54
2023/01/03 12:54:14;;;;;;;;;;;6.90;99.90;;;;;;4996437;28;19921;-56
2023/01/03 12:57:03;;;;;;;;;;;6.90;99.90;;;;;;4994781;28;19921;-56
2023/01/03 12:59:31;;;;;;;;;;;6.90;99.90;;;;;;4995164;28;19925;-52
2023/01/03 13:02:08;;;;;;;;;;;7.00;99.90;;;;;;5026109;28;19928;-56
2023/01/03 13:04:36;;;;;;;;;;;7.00;99.90;;;;;;5017625;28;19926;-56
2023/01/03 13:07:24;;;;;;;;;;;7.00;99.90;;;;;;5018234;28;20352;-55
2023/01/03 13:09:52;;;;;;;;;;;7.00;99.90;;;;;;5003360;28;19922;-56
2023/01/03 13:12:19;;;;;;;;;;;7.10;99.90;;;;;;5018182;28;19921;-56
2023/01/03 13:15:01;;;;;;;;;;;7.10;99.90;;;;;;5016097;28;19968;-55
2023/01/03 13:17:27;;;;;;;;;;;7.10;99.90;;;;;;5023925;28;20395;-54
2023/01/03 13:20:17;;;;;;;;;;;7.10;99.90;;;;;;5024460;28;19945;-55
2023/01/03 13:22:49;;;;;;;;;;;7.10;99.90;;;;;;5001282;28;19921;-55
2023/01/03 13:25:33;;;;;;;;;;;7.10;99.90;;;;;;5018091;28;19929;-55
2023/01/03 13:28:19;;;;;;;;;;;7.10;99.90;;;;;;5024764;28;19921;-56
2023/01/03 13:30:45;;;;;;;;;;;7.10;99.90;;;;;;5006318;28;20421;-56
2023/01/03 13:33:10;;;;;;;;;;;7.10;99.90;;;;;;5002829;28;19969;-52
2023/01/03 13:35:56;;;;;;;;;;;7.20;99.90;;;;;;5013746;28;19921;-51
2023/01/03 13:38:27;;;;;;;;;;;7.20;99.90;;;;;;5015844;28;20403;-53
2023/01/03 13:41:00;;;;;;;;;;;7.30;99.90;;;;;;4981879;28;19925;-52
2023/01/03 13:43:32;;;;;;;;;;;7.30;99.90;;;;;;5014109;28;19984;-52
2023/01/03 13:45:59;;;;;;;;;;;7.30;99.90;;;;;;5015552;28;19925;-51
2023/01/03 13:48:25;;;;;;;;;;;7.30;99.90;;;;;;5017806;28;20023;-52
2023/01/03 13:51:06;;;;;;;;;;;7.30;99.90;;;;;;5023352;28;19970;-55
2023/01/03 13:53:35;;;;;;;;;;;7.30;99.90;;;;;;5016965;28;19921;-51
2023/01/03 13:56:21;;;;;;;;;;;7.40;99.90;;;;;;5016952;28;20295;-53
2023/01/03 13:58:49;;;;;;;;;;;7.40;99.90;;;;;;4993657;28;19921;-53
2023/01/03 14:01:35;;;;;;;;;;;7.40;99.90;;;;;;5029013;28;20003;-52
2023/01/03 14:04:00;;;;;;;;;;;7.40;99.90;;;;;;5014706;28;20433;-54
2023/01/03 14:06:44;;;;;;;;;;;7.40;99.90;;;;;;5029240;28;19925;-56
2023/01/03 14:09:19;;;;;;;;;;;7.40;99.90;;;;;;5014964;28;20292;-55
2023/01/03 14:12:11;;;;;;;;;;;7.40;99.90;;;;;;5008480;28;19922;-52
2023/01/03 14:14:38;;;;;;;;;;;7.40;99.90;;;;;;4994599;28;19925;-51
2023/01/03 14:17:04;;;;;;;;;;;7.50;99.90;;;;;;5014765;28;20020;-55
2023/01/03 14:19:33;;;;;;;;;;;7.50;99.90;;;;;;5022980;28;19928;-52
2023/01/03 14:22:08;;;;;;;;;;;7.50;99.90;;;;;;5024922;28;20279;-52
2023/01/03 14:24:33;;;;;;;;;;;7.50;99.90;;;;;;5014380;28;20422;-53
2023/01/03 14:27:06;;;;;;;;;;;7.50;99.90;;;;;;5014297;28;19921;-54
2023/01/03 14:29:35;;;;;;;;;;;7.50;99.90;;;;;;5002201;28;20275;-55
2023/01/03 14:32:01;;;;;;;;;;;7.50;99.90;;;;;;4977325;28;19922;-56
2023/01/03 14:34:34;;;;;;;;;;;7.50;99.90;;;;;;5016498;28;19967;-55
2023/01/03 14:37:03;;;;;;;;;;;7.50;99.90;;;;;;5028378;28;20255;-56
2023/01/03 14:39:31;;;;;;;;;;;7.60;99.90;;;;;;5018027;28;19928;-54
2023/01/03 14:41:58;;;;;;;;;;;7.50;99.90;;;;;;5019876;28;20012;-56
2023/01/03 14:44:24;;;;;;;;;;;7.60;99.90;;;;;;5034866;28;20398;-56
2023/01/03 14:46:52;;;;;;;;;;;7.60;99.90;;;;;;5031205;28;19921;-56
2023/01/03 14:49:23;;;;;;;;;;;7.60;99.90;;;;;;5016189;28;19925;-56
2023/01/03 14:51:49;;;;;;;;;;;7.60;99.90;;;;;;5027937;28;19998;-55
2023/01/03 14:54:16;;;;;;;;;;;7.70;99.90;;;;;;5013868;28;20291;-56
2023/01/03 14:56:45;;;;;;;;;;;7.60;99.90;;;;;;4995551;28;19925;-56
2023/01/03 14:59:13;;;;;;;;;;;7.60;99.90;;;;;;5034337;28;20295;-56
2023/01/03 15:01:38;;;;;;;;;;;7.60;99.90;;;;;;5033939;28;19921;-53
2023/01/03 15:04:05;;;;;;;;;;;7.60;99.90;;;;;;4999048;28;20009;-54
2023/01/03 15:06:31;;;;;;;;;;;7.50;99.90;;;;;;5018778;28;19920;-56
2023/01/03 15:08:58;;;;;;;;;;;7.60;99.90;;;;;;5012298;28;20403;-56
2023/01/03 15:11:54;;;;;;;;;;;7.50;99.90;;;;;;5012935;28;19921;-55
2023/01/03 15:14:21;;;;;;;;;;;7.60;99.90;;;;;;5014387;28;20275;-56
2023/01/03 15:16:48;;;;;;;;;;;7.50;99.90;;;;;;5026695;28;19921;-55
2023/01/03 15:19:18;;;;;;;;;;;7.50;99.90;;;;;;5021979;28;19968;-55
2023/01/03 15:21:44;;;;;;;;;;;7.50;99.90;;;;;;5013800;28;19922;-52
2023/01/03 15:24:20;;;;;;;;;;;7.50;99.90;;;;;;5013987;28;19921;-54
2023/01/03 15:26:50;;;;;;;;;;;7.40;99.90;;;;;;5011763;28;19929;-55
2023/01/03 15:29:16;;;;;;;;;;;7.40;99.90;;;;;;5013675;28;19921;-53
2023/01/03 15:31:54;;;;;;;;;;;7.30;99.90;;;;;;5027330;28;19927;-54
2023/01/03 15:34:29;;;;;;;;;;;7.30;99.90;;;;;;5008225;28;20000;-55